Terminal Aerodrome Forecast
Issued by NWS

Home | Current Version | Previous Version | Text Only | Print | Product List | Glossary Off
Versions: 1 2 3 4 5 6 7 8 9 10 11 12 13

000
FTUS45 KGGW 181130
TAFOLF
TAF
KOLF 181130Z 1812/1912 04015G24KT P6SM VCSH OVC010
      TEMPO 1815/1818 4SM -SHRA OVC009
     FM181800 04013G21KT P6SM OVC015
      TEMPO 1818/1821 4SM -SHRA OVC009
     FM182300 04012KT 6SM -SHRA OVC035
     FM190500 VRB04KT P6SM BKN070=

USA.gov is the U.S. government's official web portal to all federal, state and local government web resources and services.